createdAt,value
2022-11-09T00:01:15.670Z,100.00
2022-11-09T00:06:23.978Z,100.00
2022-11-09T00:11:34.494Z,100.00
2022-11-09T00:16:43.315Z,100.00
2022-11-09T00:21:50.725Z,100.00
2022-11-09T00:27:00.156Z,100.00
2022-11-09T00:32:06.961Z,100.00
2022-11-09T00:37:10.693Z,100.00
2022-11-09T00:42:15.115Z,100.00
2022-11-09T00:47:18.520Z,100.00
2022-11-09T00:52:23.511Z,100.00
2022-11-09T00:57:26.902Z,100.00
2022-11-09T01:02:30.423Z,100.00
2022-11-09T01:07:33.822Z,100.00
2022-11-09T01:12:37.221Z,100.00
2022-11-09T01:17:40.589Z,100.00
2022-11-09T01:22:43.999Z,100.00
2022-11-09T01:27:47.426Z,100.00
2022-11-09T01:32:50.919Z,100.00
2022-11-09T01:37:54.371Z,100.00
2022-11-09T01:42:58.130Z,100.00
2022-11-09T01:48:06.453Z,100.00
2022-11-09T01:53:15.645Z,100.00
2022-11-09T01:58:25.427Z,100.00
2022-11-09T02:03:37.272Z,100.00
2022-11-09T02:08:40.969Z,100.00
2022-11-09T02:14:01.218Z,100.00
2022-11-09T02:19:04.990Z,100.00
2022-11-09T02:24:08.509Z,100.00
2022-11-09T02:29:15.031Z,100.00
2022-11-09T02:34:20.566Z,100.00
2022-11-09T02:39:40.270Z,100.00
2022-11-09T02:45:01.934Z,100.00
2022-11-09T02:51:04.447Z,100.00
2022-11-09T02:56:17.779Z,100.00
2022-11-09T03:01:22.017Z,100.00
2022-11-09T03:06:34.993Z,100.00
2022-11-09T03:11:42.334Z,100.00
2022-11-09T03:16:50.476Z,100.00
2022-11-09T03:21:54.771Z,100.00
2022-11-09T03:26:59.954Z,100.00
2022-11-09T03:32:04.637Z,100.00
2022-11-09T03:37:08.118Z,100.00
2022-11-09T03:42:11.832Z,100.00
2022-11-09T03:47:17.362Z,100.00
2022-11-09T03:52:20.838Z,100.00
2022-11-09T03:57:24.358Z,100.00
2022-11-09T04:02:27.727Z,100.00
2022-11-09T04:07:31.161Z,100.00
2022-11-09T04:12:34.493Z,100.00
2022-11-09T04:17:38.336Z,100.00
2022-11-09T04:22:41.857Z,100.00
2022-11-09T04:27:45.174Z,100.00
2022-11-09T04:32:48.607Z,100.00
2022-11-09T04:37:56.749Z,100.00
2022-11-09T04:43:01.259Z,100.00
2022-11-09T04:48:07.199Z,100.00
2022-11-09T04:53:12.891Z,100.00
2022-11-09T04:58:18.856Z,100.00
2022-11-09T05:03:24.613Z,100.00
2022-11-09T05:08:29.136Z,100.00
2022-11-09T05:13:36.132Z,100.00
2022-11-09T05:18:39.658Z,100.00
2022-11-09T05:24:01.348Z,100.00
2022-11-09T05:29:07.183Z,100.00
2022-11-09T05:34:14.331Z,100.00
2022-11-09T05:39:17.819Z,100.00
2022-11-09T05:44:21.236Z,100.00
2022-11-09T05:49:24.675Z,100.00
2022-11-09T05:54:28.047Z,100.00
2022-11-09T05:59:31.538Z,100.00
2022-11-09T06:04:34.866Z,100.00
2022-11-09T06:09:38.308Z,100.00
2022-11-09T06:14:41.706Z,100.00
2022-11-09T06:19:45.102Z,100.00
2022-11-09T06:24:48.457Z,100.00
2022-11-09T06:29:51.869Z,100.00
2022-11-09T06:34:55.308Z,100.00
2022-11-09T06:39:58.954Z,100.00
2022-11-09T06:45:07.629Z,100.00
2022-11-09T06:50:12.011Z,100.00
2022-11-09T06:55:17.079Z,100.00
2022-11-09T07:00:20.669Z,100.00
2022-11-09T07:05:24.322Z,100.00
2022-11-09T07:10:28.048Z,100.00
2022-11-09T07:15:32.096Z,100.00
2022-11-09T07:20:35.476Z,100.00
2022-11-09T07:25:45.111Z,100.00
2022-11-09T07:30:53.158Z,100.00
2022-11-09T07:35:58.976Z,100.00
2022-11-09T07:41:02.768Z,100.00
2022-11-09T07:46:06.355Z,100.00
2022-11-09T07:51:09.730Z,100.00
2022-11-09T07:56:13.221Z,100.00
2022-11-09T08:01:18.538Z,100.00
2022-11-09T08:06:28.176Z,100.00
2022-11-09T08:11:35.006Z,100.00
2022-11-09T08:16:38.412Z,100.00
2022-11-09T08:21:41.865Z,100.00
2022-11-09T08:26:45.279Z,100.00
2022-11-09T08:31:52.523Z,100.00
2022-11-09T08:37:02.555Z,100.00
2022-11-09T08:42:05.982Z,100.00
2022-11-09T08:47:09.285Z,100.00
2022-11-09T08:52:15.926Z,100.00
2022-11-09T08:57:20.121Z,100.00
2022-11-09T09:02:26.335Z,100.00
2022-11-09T09:07:31.643Z,100.00
2022-11-09T09:12:42.088Z,100.00
2022-11-09T09:17:49.078Z,100.00
2022-11-09T09:22:54.414Z,100.00
2022-11-09T09:28:07.712Z,100.00
2022-11-09T09:33:12.429Z,100.00
2022-11-09T09:38:19.168Z,100.00
2022-11-09T09:43:28.218Z,100.00
2022-11-09T09:48:46.303Z,100.00
2022-11-09T09:53:56.196Z,100.00
2022-11-09T09:59:39.184Z,100.00
2022-11-09T10:04:44.100Z,100.00
2022-11-09T10:10:12.488Z,100.00
2022-11-09T10:15:28.382Z,100.00
2022-11-09T10:20:42.447Z,100.00
2022-11-09T10:26:05.233Z,100.00
2022-11-09T10:31:17.237Z,100.00
2022-11-09T10:36:25.591Z,100.00
2022-11-09T10:41:41.082Z,100.00
2022-11-09T10:47:14.912Z,100.00
2022-11-09T10:52:47.365Z,100.00
2022-11-09T10:58:23.285Z,100.00
2022-11-09T11:03:46.270Z,100.00
2022-11-09T11:09:09.289Z,99.77
2022-11-09T11:14:36.659Z,99.26
2022-11-09T11:20:38.588Z,98.28
2022-11-09T11:26:23.724Z,97.86
2022-11-09T11:31:46.337Z,97.55
2022-11-09T11:37:42.559Z,96.91
2022-11-09T11:43:24.095Z,96.91
2022-11-09T11:48:52.277Z,95.37
2022-11-09T11:54:46.825Z,94.32
2022-11-09T12:00:15.408Z,93.69
2022-11-09T12:05:44.194Z,93.97
2022-11-09T12:11:31.089Z,93.78
2022-11-09T12:17:20.998Z,93.14
2022-11-09T12:23:11.740Z,92.74
2022-11-09T12:29:02.703Z,91.72
2022-11-09T12:34:33.194Z,90.45
2022-11-09T12:39:59.487Z,89.85
2022-11-09T12:45:41.149Z,89.53
2022-11-09T12:51:05.642Z,88.72
2022-11-09T12:56:31.318Z,88.13
2022-11-09T13:01:58.897Z,87.83
2022-11-09T13:07:38.504Z,87.52
2022-11-09T13:13:13.565Z,87.42
2022-11-09T13:18:56.114Z,87.60
2022-11-09T13:24:30.681Z,87.42
2022-11-09T13:30:29.342Z,87.35
2022-11-09T13:35:51.316Z,87.48
2022-11-09T13:41:43.143Z,87.59
2022-11-09T13:47:05.452Z,87.67
2022-11-09T13:52:48.924Z,87.52
2022-11-09T13:58:37.649Z,86.24
2022-11-09T14:04:06.257Z,85.80
2022-11-09T14:09:32.448Z,85.62
2022-11-09T14:14:57.517Z,85.69
2022-11-09T14:20:38.974Z,85.58
2022-11-09T14:26:16.460Z,85.33
2022-11-09T14:31:45.488Z,85.59
2022-11-09T14:37:09.400Z,85.55
2022-11-09T14:42:40.843Z,85.63
2022-11-09T14:48:15.012Z,85.80
2022-11-09T14:53:38.403Z,86.30
2022-11-09T14:59:02.439Z,87.09
2022-11-09T15:04:27.202Z,87.48
2022-11-09T15:09:52.934Z,87.47
2022-11-09T15:15:24.806Z,87.78
2022-11-09T15:20:47.065Z,88.27
2022-11-09T15:26:35.830Z,88.56
2022-11-09T15:32:19.263Z,89.11
2022-11-09T15:37:44.736Z,89.59
2022-11-09T15:43:08.383Z,89.88
2022-11-09T15:48:49.526Z,90.24
2022-11-09T15:54:12.080Z,90.48
2022-11-09T15:59:36.847Z,90.63
2022-11-09T16:05:00.053Z,90.65
2022-11-09T16:10:28.110Z,90.70
2022-11-09T16:15:53.659Z,90.80
2022-11-09T16:21:17.418Z,91.04
2022-11-09T16:26:39.987Z,91.11
2022-11-09T16:32:03.926Z,91.20
2022-11-09T16:37:33.449Z,91.35
2022-11-09T16:42:55.723Z,91.67
2022-11-09T16:48:18.948Z,91.80
2022-11-09T16:53:44.073Z,91.63
2022-11-09T16:59:06.390Z,91.88
2022-11-09T17:04:34.493Z,91.96
2022-11-09T17:09:56.608Z,92.47
2022-11-09T17:15:20.846Z,92.73
2022-11-09T17:20:48.338Z,92.93
2022-11-09T17:26:10.947Z,93.17
2022-11-09T17:31:34.097Z,93.30
2022-11-09T17:37:05.115Z,93.50
2022-11-09T17:42:27.995Z,93.65
2022-11-09T17:47:50.199Z,93.86
2022-11-09T17:53:24.688Z,93.64
2022-11-09T17:58:47.510Z,94.17
2022-11-09T18:04:11.702Z,94.33
2022-11-09T18:09:41.726Z,94.71
2022-11-09T18:15:09.306Z,95.08
2022-11-09T18:20:31.537Z,95.63
2022-11-09T18:25:59.796Z,95.90
2022-11-09T18:31:24.503Z,96.17
2022-11-09T18:36:47.416Z,95.90
2022-11-09T18:42:11.396Z,95.96
2022-11-09T18:47:34.511Z,96.58
2022-11-09T18:52:58.672Z,96.74
2022-11-09T18:58:21.349Z,96.68
2022-11-09T19:03:43.637Z,96.72
2022-11-09T19:09:25.674Z,96.98
2022-11-09T19:14:47.856Z,97.33
2022-11-09T19:20:13.123Z,97.55
2022-11-09T19:25:38.026Z,97.81
2022-11-09T19:31:05.883Z,98.07
2022-11-09T19:36:31.667Z,98.29
2022-11-09T19:42:00.325Z,98.46
2022-11-09T19:47:22.574Z,98.56
2022-11-09T19:52:45.854Z,98.70
2022-11-09T19:58:08.712Z,99.02
2022-11-09T20:03:34.127Z,99.05
2022-11-09T20:08:58.051Z,98.89
2022-11-09T20:14:21.411Z,98.78
2022-11-09T20:19:47.873Z,99.01
2022-11-09T20:25:13.632Z,98.85
2022-11-09T20:30:39.757Z,99.32
2022-11-09T20:36:02.025Z,99.52
2022-11-09T20:41:25.679Z,99.57
2022-11-09T20:46:48.479Z,99.58
2022-11-09T20:52:10.879Z,99.80
2022-11-09T20:57:33.408Z,99.90
2022-11-09T21:02:55.768Z,99.99
2022-11-09T21:08:18.290Z,100.00
2022-11-09T21:13:44.443Z,100.00
2022-11-09T21:19:09.720Z,100.00
2022-11-09T21:25:03.549Z,100.00
2022-11-09T21:30:25.684Z,100.00
2022-11-09T21:35:56.921Z,100.00
2022-11-09T21:41:41.290Z,100.00
2022-11-09T21:47:04.376Z,100.00
2022-11-09T21:52:40.454Z,100.00
2022-11-09T21:58:03.158Z,100.00
2022-11-09T22:03:28.591Z,100.00
2022-11-09T22:08:51.815Z,100.00
2022-11-09T22:14:38.249Z,100.00
2022-11-09T22:20:19.493Z,100.00
2022-11-09T22:25:46.836Z,100.00
2022-11-09T22:31:13.899Z,100.00
2022-11-09T22:36:35.813Z,100.00
2022-11-09T22:41:57.987Z,100.00
2022-11-09T22:47:20.178Z,100.00
2022-11-09T22:52:42.222Z,100.00
2022-11-09T22:58:04.583Z,100.00
2022-11-09T23:03:27.178Z,100.00
2022-11-09T23:08:51.994Z,100.00
2022-11-09T23:14:14.191Z,100.00
2022-11-09T23:19:36.346Z,100.00
2022-11-09T23:25:17.052Z,100.00
2022-11-09T23:30:39.426Z,100.00
2022-11-09T23:36:02.869Z,100.00
2022-11-09T23:41:25.189Z,100.00
2022-11-09T23:46:47.308Z,100.00
2022-11-09T23:52:10.066Z,100.00
2022-11-09T23:57:32.205Z,100.00
